Time;durP1;ratioP1;P1;durP2;ratioP2;P2;SDS_P1;SDS_P2;PMS_P1;PMS_P2;Temp;Humidity;BMP_temperature;BMP_pressure;BME280_temperature;BME280_humidity;BME280_pressure;Samples;Min_cycle;Max_cycle;Signal;HPM_P1;HPM_P2
2021/05/01 00:00:43;;;;;;;6.75;4.13;;;5.50;99.90;;;;;;5005269;28;20019;-73
2021/05/01 00:03:10;;;;;;;5.60;3.95;;;5.50;99.90;;;;;;4986819;28;20113;-73
2021/05/01 00:05:36;;;;;;;5.75;3.85;;;5.40;99.90;;;;;;5003944;28;20026;-73
2021/05/01 00:08:09;;;;;;;9.05;3.22;;;5.40;99.90;;;;;;5005741;28;20434;-73
2021/05/01 00:10:36;;;;;;;7.57;3.22;;;5.30;99.90;;;;;;4986565;28;20042;-73
2021/05/01 00:13:10;;;;;;;7.10;3.80;;;5.40;99.90;;;;;;4985396;28;20145;-73
2021/05/01 00:15:41;;;;;;;6.95;4.03;;;5.30;99.90;;;;;;4984434;28;20048;-73
2021/05/01 00:18:15;;;;;;;9.05;3.85;;;5.40;99.90;;;;;;4984366;28;20084;-73
2021/05/01 00:20:42;;;;;;;5.25;3.33;;;5.30;99.90;;;;;;4985836;28;20026;-76
2021/05/01 00:23:07;;;;;;;;;;;5.30;99.90;;;;;;4985082;28;20027;-73
2021/05/01 00:25:35;;;;;;;4.25;2.28;;;5.30;99.90;;;;;;4982050;28;19924;-75
2021/05/01 00:28:02;;;;;;;;;;;5.30;99.90;;;;;;4982837;28;20035;-75
2021/05/01 00:30:29;;;;;;;6.35;2.63;;;5.30;99.90;;;;;;5002296;28;19910;-75
2021/05/01 00:32:58;;;;;;;5.53;2.90;;;5.40;99.90;;;;;;4985336;28;20034;-75
2021/05/01 00:35:27;;;;;;;5.47;3.40;;;5.40;99.90;;;;;;4982517;28;20026;-73
2021/05/01 00:37:57;;;;;;;4.97;2.67;;;5.40;99.90;;;;;;4988108;28;20085;-73
2021/05/01 00:40:34;;;;;;;5.45;3.40;;;5.50;99.90;;;;;;4982677;28;20501;-74
2021/05/01 00:43:00;;;;;;;3.97;2.70;;;5.50;99.90;;;;;;4984814;28;20039;-74
2021/05/01 00:45:27;;;;;;;4.30;2.75;;;5.50;99.90;;;;;;4984864;28;20035;-73
2021/05/01 00:47:54;;;;;;;8.88;3.08;;;5.60;99.90;;;;;;4984026;28;20039;-73
2021/05/01 00:50:20;;;;;;;11.50;3.50;;;5.70;99.90;;;;;;4984529;28;20459;-73
2021/05/01 00:52:46;;;;;;;6.03;3.30;;;5.70;99.90;;;;;;4979793;28;20034;-73
2021/05/01 00:55:12;;;;;;;5.07;2.65;;;5.70;99.90;;;;;;4984017;28;20329;-73
2021/05/01 00:57:40;;;;;;;4.65;3.13;;;5.70;99.90;;;;;;4991093;28;20022;-72
2021/05/01 01:00:33;;;;;;;6.72;3.50;;;5.70;99.90;;;;;;4986802;28;20374;-72
2021/05/01 01:02:58;;;;;;;6.35;2.67;;;5.70;99.90;;;;;;4987934;28;20038;-73
2021/05/01 01:05:24;;;;;;;6.93;2.63;;;5.70;99.90;;;;;;4990527;28;20027;-72
2021/05/01 01:07:50;;;;;;;5.95;2.70;;;5.60;99.90;;;;;;4993471;28;20038;-73
2021/05/01 01:10:16;;;;;;;4.25;2.85;;;5.60;99.90;;;;;;4992452;28;20088;-73
2021/05/01 01:12:41;;;;;;;3.72;2.33;;;5.60;99.90;;;;;;4993996;28;20037;-73
2021/05/01 01:15:08;;;;;;;3.57;2.53;;;5.60;99.90;;;;;;5011785;28;20330;-73
2021/05/01 01:17:34;;;;;;;2.53;2.25;;;5.60;99.90;;;;;;4993605;28;20026;-73
2021/05/01 01:19:59;;;;;;;6.43;2.47;;;5.60;99.90;;;;;;4995902;28;20096;-73
2021/05/01 01:22:25;;;;;;;3.67;2.20;;;5.60;99.90;;;;;;4995267;28;20022;-73
2021/05/01 01:24:51;;;;;;;5.77;3.23;;;5.50;99.90;;;;;;5015814;28;20018;-73
2021/05/01 01:27:18;;;;;;;4.27;2.93;;;5.50;99.90;;;;;;5016416;28;20038;-73
2021/05/01 01:29:43;;;;;;;6.40;3.60;;;5.50;99.90;;;;;;4999756;28;20052;-73
2021/05/01 01:32:11;;;;;;;7.15;3.40;;;5.50;99.90;;;;;;5016861;28;20045;-73
2021/05/01 01:34:42;;;;;;;6.78;2.95;;;5.50;99.90;;;;;;4996568;28;20064;-73
2021/05/01 01:37:08;;;;;;;7.72;3.72;;;5.40;99.90;;;;;;4998309;28;20037;-73
2021/05/01 01:39:34;;;;;;;6.73;3.57;;;5.50;99.90;;;;;;4999372;28;20052;-73
2021/05/01 01:42:00;;;;;;;4.68;2.92;;;5.40;99.90;;;;;;4999431;28;20298;-74
2021/05/01 01:44:25;;;;;;;5.77;3.00;;;5.40;99.90;;;;;;4999437;28;20036;-73
2021/05/01 01:46:51;;;;;;;7.83;3.73;;;5.30;99.90;;;;;;5016546;28;20030;-72
2021/05/01 01:49:17;;;;;;;2.97;2.23;;;5.30;99.90;;;;;;5015639;28;20026;-73
2021/05/01 01:51:42;;;;;;;5.63;3.77;;;5.30;99.90;;;;;;4996253;28;20081;-73
2021/05/01 01:54:08;;;;;;;10.07;3.27;;;5.30;99.90;;;;;;4988475;28;20035;-73
2021/05/01 01:56:38;;;;;;;7.50;3.57;;;5.20;99.90;;;;;;4995210;28;20042;-73
2021/05/01 01:59:05;;;;;;;5.35;2.75;;;5.20;99.90;;;;;;5002091;28;20042;-75
2021/05/01 02:01:32;;;;;;;7.05;2.83;;;5.20;99.90;;;;;;5014036;28;20037;-73
2021/05/01 02:03:58;;;;;;;4.18;2.65;;;5.10;99.90;;;;;;5015999;28;20034;-73
2021/05/01 02:06:24;;;;;;;4.50;3.13;;;5.10;99.90;;;;;;4997149;28;20039;-74
2021/05/01 02:08:49;;;;;;;5.53;2.87;;;5.10;99.90;;;;;;4989161;28;20030;-73
2021/05/01 02:11:15;;;;;;;7.87;2.83;;;5.10;99.90;;;;;;5004049;28;20414;-73
2021/05/01 02:13:41;;;;;;;7.23;3.93;;;5.10;99.90;;;;;;5014716;28;20050;-73
2021/05/01 02:16:07;;;;;;;3.87;2.67;;;5.00;99.90;;;;;;5014833;28;20104;-73
2021/05/01 02:18:32;;;;;;;7.22;3.35;;;5.00;99.90;;;;;;5011583;28;20053;-77
2021/05/01 02:20:58;;;;;;;7.87;3.60;;;5.00;99.90;;;;;;5016664;28;20034;-74
2021/05/01 02:23:24;;;;;;;4.77;3.30;;;5.00;99.90;;;;;;4998355;28;20034;-73
2021/05/01 02:25:50;;;;;;;5.68;3.42;;;5.00;99.90;;;;;;5016371;28;20049;-73
2021/05/01 02:28:18;;;;;;;6.13;3.55;;;5.00;99.90;;;;;;4997991;28;20069;-73
2021/05/01 02:30:43;;;;;;;4.00;2.97;;;5.00;99.90;;;;;;5015871;28;20313;-73
2021/05/01 02:33:09;;;;;;;6.05;3.95;;;4.90;99.90;;;;;;4999143;28;20030;-73
2021/05/01 02:35:38;;;;;;;7.43;3.77;;;4.90;99.90;;;;;;5015436;28;20030;-73
2021/05/01 02:38:04;;;;;;;5.43;3.53;;;4.90;99.90;;;;;;4994057;28;20041;-73
2021/05/01 02:40:31;;;;;;;5.65;3.33;;;4.80;99.90;;;;;;4992502;28;20100;-73
2021/05/01 02:43:02;;;;;;;6.30;3.70;;;4.80;99.90;;;;;;5005367;28;20104;-73
2021/05/01 02:45:28;;;;;;;6.35;3.78;;;4.80;99.90;;;;;;5005073;28;20030;-73
2021/05/01 02:47:54;;;;;;;4.45;2.83;;;4.70;99.90;;;;;;4987455;28;20042;-73
2021/05/01 02:50:19;;;;;;;7.43;4.15;;;4.70;99.90;;;;;;4987759;28;20038;-73
2021/05/01 02:52:45;;;;;;;10.85;4.05;;;4.60;99.90;;;;;;4987681;28;20392;-73
2021/05/01 02:55:12;;;;;;;8.75;4.57;;;4.60;99.90;;;;;;5005118;28;20034;-73
2021/05/01 02:57:38;;;;;;;6.85;3.30;;;4.60;99.90;;;;;;5005007;28;20453;-73
2021/05/01 03:00:07;;;;;;;8.77;3.80;;;4.50;99.90;;;;;;4987722;28;20038;-73
2021/05/01 03:02:33;;;;;;;7.60;4.93;;;4.50;99.90;;;;;;4994517;28;20022;-73
2021/05/01 03:04:59;;;;;;;6.32;3.83;;;4.50;99.90;;;;;;4995290;28;20118;-74
2021/05/01 03:07:25;;;;;;;6.88;3.90;;;4.50;99.90;;;;;;5012675;28;20045;-73
2021/05/01 03:09:51;;;;;;;6.90;4.30;;;4.50;99.90;;;;;;4997440;28;20034;-73
2021/05/01 03:12:17;;;;;;;5.40;3.73;;;4.40;99.90;;;;;;5014440;28;20048;-72
2021/05/01 03:14:44;;;;;;;7.93;3.97;;;4.40;99.90;;;;;;5013827;28;20042;-72
2021/05/01 03:17:11;;;;;;;8.52;3.85;;;4.50;99.90;;;;;;4995985;28;20121;-72
2021/05/01 03:19:37;;;;;;;13.75;3.72;;;4.40;99.90;;;;;;5014140;28;20113;-73
2021/05/01 03:22:02;;;;;;;6.97;4.10;;;4.40;99.90;;;;;;5014378;28;20101;-72
2021/05/01 03:24:30;;;;;;;6.23;3.60;;;4.30;99.90;;;;;;5015391;28;20381;-72
2021/05/01 03:26:56;;;;;;;7.40;3.63;;;4.20;99.90;;;;;;5013430;28;20363;-73
2021/05/01 03:29:22;;;;;;;7.85;4.25;;;4.20;99.90;;;;;;5015258;28;20022;-73
2021/05/01 03:31:48;;;;;;;6.67;3.67;;;4.30;99.90;;;;;;5010047;28;20451;-73
2021/05/01 03:34:14;;;;;;;7.63;4.50;;;4.20;99.90;;;;;;5006738;28;20101;-73
2021/05/01 03:36:39;;;;;;;6.33;3.60;;;4.20;99.90;;;;;;5011561;28;20355;-72
2021/05/01 03:39:05;;;;;;;6.67;4.30;;;4.20;99.90;;;;;;5004646;28;20139;-72
2021/05/01 03:41:31;;;;;;;7.17;4.03;;;4.20;99.90;;;;;;5013471;28;20079;-75
2021/05/01 03:43:57;;;;;;;8.53;4.43;;;4.20;99.90;;;;;;5014383;28;20251;-73
2021/05/01 03:46:22;;;;;;;11.30;4.50;;;4.20;99.90;;;;;;5013282;28;20034;-72
2021/05/01 03:48:48;;;;;;;7.65;4.32;;;4.20;99.90;;;;;;5012492;28;20026;-72
2021/05/01 03:51:14;;;;;;;7.43;5.03;;;4.20;99.90;;;;;;5011703;28;20026;-73
2021/05/01 03:53:39;;;;;;;8.23;4.23;;;4.30;99.90;;;;;;5001611;28;20492;-73
2021/05/01 03:56:05;;;;;;;7.60;4.23;;;4.20;99.90;;;;;;4985759;28;20432;-73
2021/05/01 03:58:31;;;;;;;8.73;3.83;;;4.20;99.90;;;;;;5002464;28;20100;-73
2021/05/01 04:00:57;;;;;;;6.33;3.20;;;4.20;99.90;;;;;;5004542;28;20022;-73
2021/05/01 04:03:22;;;;;;;4.87;3.47;;;4.10;99.90;;;;;;5005959;28;20026;-72
2021/05/01 04:05:48;;;;;;;12.23;3.83;;;4.10;99.90;;;;;;4983284;28;20037;-73
2021/05/01 04:08:14;;;;;;;9.83;4.00;;;4.00;99.90;;;;;;4988177;28;20416;-73
2021/05/01 04:10:39;;;;;;;7.23;4.10;;;4.00;99.90;;;;;;5001528;28;20134;-72
2021/05/01 04:13:05;;;;;;;7.78;4.05;;;4.00;99.90;;;;;;5004249;28;20057;-73
2021/05/01 04:15:31;;;;;;;6.77;3.60;;;4.00;99.90;;;;;;4990044;28;20061;-72
2021/05/01 04:17:57;;;;;;;7.27;3.90;;;3.90;99.90;;;;;;5006198;28;20030;-73
2021/05/01 04:20:23;;;;;;;9.67;3.50;;;3.90;99.90;;;;;;4987323;28;20323;-73
2021/05/01 04:22:49;;;;;;;6.67;3.73;;;3.80;99.90;;;;;;4988966;28;20027;-73
2021/05/01 04:25:15;;;;;;;6.68;3.50;;;3.80;99.90;;;;;;4985902;28;20064;-72
2021/05/01 04:27:41;;;;;;;6.23;3.93;;;3.70;99.90;;;;;;5001872;28;20065;-73
2021/05/01 04:30:08;;;;;;;8.88;4.00;;;3.70;99.90;;;;;;5003591;28;20038;-72
2021/05/01 04:32:34;;;;;;;7.95;3.70;;;3.70;99.90;;;;;;4985738;28;20034;-72
2021/05/01 04:35:00;;;;;;;7.00;4.50;;;3.80;99.90;;;;;;4984271;28;20467;-74
2021/05/01 04:37:26;;;;;;;9.00;3.40;;;3.80;99.90;;;;;;5002531;28;20034;-73
2021/05/01 04:39:52;;;;;;;4.97;3.30;;;3.90;99.90;;;;;;5003325;28;20030;-72
2021/05/01 04:42:17;;;;;;;6.47;4.10;;;3.90;99.90;;;;;;5002712;28;20392;-73
2021/05/01 04:44:43;;;;;;;11.80;3.40;;;3.90;99.90;;;;;;5003347;28;20113;-72
2021/05/01 04:47:10;;;;;;;10.93;4.53;;;3.90;99.90;;;;;;5003029;28;20043;-73
2021/05/01 04:49:36;;;;;;;7.40;3.72;;;3.90;99.90;;;;;;5002717;28;20088;-73
2021/05/01 04:52:02;;;;;;;7.53;3.90;;;3.90;99.90;;;;;;5003768;28;20337;-73
2021/05/01 04:54:28;;;;;;;6.93;4.20;;;3.80;99.90;;;;;;5003771;28;20069;-73
2021/05/01 04:56:54;;;;;;;13.10;3.72;;;3.70;99.90;;;;;;5001938;28;20065;-72
2021/05/01 04:59:19;;;;;;;5.70;3.87;;;3.70;99.90;;;;;;5004673;28;20400;-72
2021/05/01 05:01:45;;;;;;;6.53;3.42;;;3.70;99.90;;;;;;5009938;28;20018;-72
2021/05/01 05:04:11;;;;;;;11.57;4.23;;;3.80;99.90;;;;;;5012290;28;20026;-72
2021/05/01 05:06:37;;;;;;;7.15;4.20;;;4.00;99.90;;;;;;4998788;28;20544;-72
2021/05/01 05:09:03;;;;;;;8.67;4.17;;;4.10;99.90;;;;;;5013141;28;20034;-73
2021/05/01 05:11:29;;;;;;;6.50;3.97;;;4.30;99.90;;;;;;5016276;28;20026;-73
2021/05/01 05:13:55;;;;;;;8.03;4.60;;;4.50;99.90;;;;;;5016449;28;20452;-72
2021/05/01 05:16:21;;;;;;;10.57;3.67;;;4.60;99.90;;;;;;5011968;28;20033;-73
2021/05/01 05:18:47;;;;;;;8.93;4.40;;;4.80;99.90;;;;;;5007575;28;20021;-72
2021/05/01 05:21:14;;;;;;;6.88;3.95;;;4.90;99.90;;;;;;4998057;28;20416;-73
2021/05/01 05:23:39;;;;;;;12.80;4.53;;;5.00;99.90;;;;;;5014154;28;20459;-73
2021/05/01 05:26:05;;;;;;;12.20;4.50;;;5.10;99.90;;;;;;5006778;28;20030;-73
2021/05/01 05:28:31;;;;;;;10.13;4.80;;;5.10;99.90;;;;;;4998758;28;20038;-73
2021/05/01 05:30:57;;;;;;;12.13;4.13;;;5.10;99.90;;;;;;5017401;28;20421;-73
2021/05/01 05:33:23;;;;;;;8.70;4.87;;;5.10;99.90;;;;;;5015008;28;20036;-72
2021/05/01 05:35:49;;;;;;;13.33;6.70;;;5.20;99.90;;;;;;5012210;28;20093;-72
2021/05/01 05:38:14;;;;;;;11.17;6.57;;;5.20;99.90;;;;;;4995650;28;20038;-74
2021/05/01 05:40:41;;;;;;;10.98;5.82;;;5.30;99.90;;;;;;5016263;28;20108;-73
2021/05/01 05:43:08;;;;;;;;;;;5.30;99.90;;;;;;4997913;28;20030;-72
2021/05/01 05:45:34;;;;;;;9.13;5.32;;;5.30;99.90;;;;;;5015604;28;20239;-73
2021/05/01 05:47:59;;;;;;;10.10;6.50;;;5.40;99.90;;;;;;5016036;28;20042;-73
2021/05/01 05:50:25;;;;;;;13.03;5.20;;;5.50;99.90;;;;;;4996387;28;20049;-73
2021/05/01 05:52:51;;;;;;;7.47;4.97;;;5.60;99.90;;;;;;4999082;28;20302;-72
2021/05/01 05:55:17;;;;;;;9.30;5.13;;;5.70;99.90;;;;;;5015183;28;20030;-73
2021/05/01 05:57:52;;;;;;;9.00;5.23;;;5.70;99.90;;;;;;5014442;28;20382;-73
2021/05/01 06:00:19;;;;;;;8.27;4.78;;;5.90;99.90;;;;;;5015008;28;20022;-73
2021/05/01 06:02:45;;;;;;;6.30;4.13;;;5.90;99.90;;;;;;5016417;28;20034;-73
2021/05/01 06:05:28;;;;;;;11.10;3.90;;;6.00;99.90;;;;;;5016219;28;20499;-74
2021/05/01 06:07:58;;;;;;;8.85;4.13;;;6.10;99.90;;;;;;5015598;28;20669;-73
2021/05/01 06:10:24;;;;;;;15.15;4.18;;;6.20;99.90;;;;;;5015567;28;20084;-73
2021/05/01 06:12:53;;;;;;;10.63;4.80;;;6.30;99.90;;;;;;4998291;28;20038;-73
2021/05/01 06:15:19;;;;;;;8.88;3.78;;;6.40;99.90;;;;;;4998479;28;20040;-73
2021/05/01 06:17:46;;;;;;;7.47;3.87;;;6.40;99.90;;;;;;5014489;28;20156;-74
2021/05/01 06:20:14;;;;;;;6.60;3.53;;;6.50;99.90;;;;;;5009665;28;20030;-73
2021/05/01 06:22:40;;;;;;;6.25;3.05;;;6.50;99.90;;;;;;5014241;28;20050;-73
2021/05/01 06:25:08;;;;;;;11.15;3.92;;;6.60;99.90;;;;;;5013380;28;20124;-73
2021/05/01 06:27:34;;;;;;;5.85;3.67;;;6.70;99.90;;;;;;4997986;28;20033;-73
2021/05/01 06:30:01;;;;;;;12.13;2.93;;;6.70;99.90;;;;;;5015037;28;20038;-73
2021/05/01 06:32:27;;;;;;;12.93;3.72;;;6.80;99.90;;;;;;5015646;28;20033;-73
2021/05/01 06:34:56;;;;;;;5.53;3.20;;;6.90;99.90;;;;;;4996677;28;20034;-74
2021/05/01 06:37:22;;;;;;;5.35;3.70;;;6.90;99.90;;;;;;4997164;28;20051;-74
2021/05/01 06:39:51;;;;;;;6.75;4.13;;;7.00;99.90;;;;;;4995432;28;20073;-74
2021/05/01 06:42:29;;;;;;;6.47;3.97;;;7.10;99.90;;;;;;5013119;28;20072;-73
2021/05/01 06:45:09;;;;;;;8.15;4.05;;;7.20;99.90;;;;;;4996004;28;20432;-73
2021/05/01 06:47:38;;;;;;;6.28;3.42;;;7.30;99.90;;;;;;5005635;28;20030;-73
2021/05/01 06:50:08;;;;;;;7.18;3.80;;;7.40;99.90;;;;;;5005514;28;20066;-73
2021/05/01 06:52:41;;;;;;;7.65;3.55;;;7.50;99.90;;;;;;5014444;28;20056;-74
2021/05/01 06:55:08;;;;;;;12.48;3.72;;;7.60;99.90;;;;;;4997112;28;20033;-74
2021/05/01 06:57:37;;;;;;;;;;;7.70;99.90;;;;;;5015926;28;20048;-74
2021/05/01 07:00:08;;;;;;;6.35;3.30;;;7.80;99.90;;;;;;4988313;28;19929;-75
2021/05/01 07:02:40;;;;;;;7.78;3.80;;;7.90;99.90;;;;;;5010570;28;20098;-74
2021/05/01 07:05:08;;;;;;;4.55;2.67;;;8.10;99.90;;;;;;4998009;28;20520;-75
2021/05/01 07:07:34;;;;;;;8.95;3.10;;;8.40;99.90;;;;;;4993715;28;20026;-76
2021/05/01 07:10:06;;;;;;;7.60;3.75;;;8.60;99.90;;;;;;5006835;28;20651;-76
2021/05/01 07:12:32;;;;;;;6.75;3.55;;;8.80;99.90;;;;;;5014989;28;20038;-83
2021/05/01 07:15:09;;;;;;;6.23;2.83;;;8.90;99.90;;;;;;4989429;28;20429;-76
2021/05/01 07:17:36;;;;;;;7.32;3.33;;;9.10;99.90;;;;;;5009508;28;20034;-81
2021/05/01 07:20:05;;;;;;;7.50;3.10;;;9.40;99.90;;;;;;4996546;28;20058;-77
2021/05/01 07:22:31;;;;;;;6.28;2.95;;;9.80;99.90;;;;;;5012879;28;20352;-75
2021/05/01 07:25:00;;;;;;;4.93;2.80;;;10.30;99.90;;;;;;4992900;28;20030;-77
2021/05/01 07:27:41;;;;;;;7.90;2.45;;;10.70;99.90;;;;;;4986626;28;20030;-76
2021/05/01 07:30:08;;;;;;;4.95;2.45;;;10.80;99.90;;;;;;5008452;28;20029;-74
2021/05/01 07:32:38;;;;;;;3.45;2.22;;;10.60;99.90;;;;;;4993430;28;20045;-77
2021/05/01 07:35:06;;;;;;;3.00;2.25;;;10.50;99.90;;;;;;4995731;28;20026;-77
2021/05/01 07:37:34;;;;;;;5.45;2.45;;;10.30;99.90;;;;;;5013772;28;20069;-76
2021/05/01 07:40:03;;;;;;;6.78;2.30;;;10.20;99.90;;;;;;4987783;28;20065;-76
2021/05/01 07:42:35;;;;;;;4.47;2.70;;;10.60;99.90;;;;;;4996544;28;20030;-77
2021/05/01 07:45:02;;;;;;;8.43;2.90;;;10.80;99.90;;;;;;4990168;28;20117;-77
2021/05/01 07:47:30;;;;;;;13.45;2.70;;;11.00;99.90;;;;;;4991870;28;20037;-76
2021/05/01 07:49:58;;;;;;;4.35;1.80;;;11.40;99.90;;;;;;4986238;28;20035;-77
2021/05/01 07:52:24;;;;;;;4.78;2.45;;;11.70;99.90;;;;;;5010744;28;20068;-76
2021/05/01 07:54:49;;;;;;;7.60;2.03;;;11.30;99.90;;;;;;4991043;28;20085;-76
2021/05/01 07:57:15;;;;;;;8.40;2.07;;;11.10;99.90;;;;;;4993567;28;20481;-78
2021/05/01 07:59:41;;;;;;;6.87;2.30;;;11.40;99.90;;;;;;4994298;28;20018;-75
2021/05/01 08:02:06;;;;;;;5.80;2.10;;;11.70;99.90;;;;;;5007684;28;20025;-75
2021/05/01 08:04:32;;;;;;;6.37;2.30;;;12.00;99.90;;;;;;4994072;28;20030;-79
2021/05/01 08:06:59;;;;;;;11.30;2.07;;;12.20;99.90;;;;;;5008752;28;20037;-77
2021/05/01 08:09:25;;;;;;;3.85;2.03;;;12.30;99.90;;;;;;4988154;28;20042;-77
2021/05/01 08:11:51;;;;;;;2.70;1.90;;;12.30;99.90;;;;;;5010946;28;20041;-77
2021/05/01 08:14:16;;;;;;;3.33;2.20;;;12.20;99.90;;;;;;4996023;28;20140;-76
2021/05/01 08:16:42;;;;;;;7.97;2.23;;;12.00;99.90;;;;;;4992973;28;20033;-77
2021/05/01 08:19:08;;;;;;;1.90;1.70;;;11.70;99.90;;;;;;5007294;28;20473;-76
2021/05/01 08:21:35;;;;;;;4.10;1.92;;;11.50;99.90;;;;;;4988443;28;20689;-77
2021/05/01 08:24:02;;;;;;;2.40;1.63;;;11.10;99.90;;;;;;5013472;28;20136;-77
2021/05/01 08:26:28;;;;;;;5.00;1.83;;;10.90;99.90;;;;;;5013205;28;20472;-76
2021/05/01 08:28:54;;;;;;;2.80;2.03;;;10.70;99.90;;;;;;5003341;28;20490;-75
2021/05/01 08:31:20;;;;;;;1.77;1.50;;;10.50;99.90;;;;;;4993900;28;20058;-75
2021/05/01 08:33:47;;;;;;;4.80;1.42;;;10.30;99.90;;;;;;4991083;28;20346;-76
2021/05/01 08:36:12;;;;;;;3.77;2.03;;;10.20;99.90;;;;;;4991186;28;20424;-75
2021/05/01 08:38:38;;;;;;;3.63;1.83;;;10.10;99.90;;;;;;4989419;28;20288;-76
2021/05/01 08:41:04;;;;;;;2.80;2.30;;;10.00;99.90;;;;;;5005895;28;20026;-75
2021/05/01 08:43:31;;;;;;;3.03;1.95;;;10.00;99.90;;;;;;5002591;28;20037;-75
2021/05/01 08:45:58;;;;;;;4.20;2.05;;;9.90;99.90;;;;;;5010818;28;20034;-77
2021/05/01 08:48:26;;;;;;;3.22;2.10;;;10.00;99.90;;;;;;4994144;28;20084;-79
2021/05/01 08:51:02;;;;;;;6.70;2.38;;;10.10;99.90;;;;;;4994710;28;20025;-78
2021/05/01 08:53:29;;;;;;;2.10;1.20;;;9.80;99.90;;;;;;5010143;28;20029;-73
2021/05/01 08:55:55;;;;;;;3.78;1.42;;;9.10;99.90;;;;;;5012930;28;20022;-74
2021/05/01 08:58:21;;;;;;;2.42;1.50;;;8.90;99.90;;;;;;5011998;28;20022;-74
2021/05/01 09:00:49;;;;;;;4.47;1.63;;;8.90;99.90;;;;;;5012780;28;20385;-74
2021/05/01 09:03:19;;;;;;;2.50;1.90;;;8.90;99.90;;;;;;5013370;28;20440;-75
2021/05/01 09:05:45;;;;;;;8.40;3.55;;;8.90;99.90;;;;;;4995369;28;20129;-74
2021/05/01 09:08:13;;;;;;;5.20;2.47;;;8.80;99.90;;;;;;4999685;28;20101;-77
2021/05/01 09:10:50;;;;;;;3.42;2.40;;;8.80;99.90;;;;;;4996413;28;20034;-79
2021/05/01 09:13:24;;;;;;;4.63;2.33;;;8.80;99.90;;;;;;5006915;28;20052;-74
2021/05/01 09:16:07;;;;;;;4.25;2.80;;;9.10;99.90;;;;;;5012501;28;20320;-75
2021/05/01 09:18:56;;;;;;;10.10;2.92;;;9.90;99.90;;;;;;5012683;28;20084;-75
2021/05/01 09:21:26;;;;;;;4.63;2.45;;;10.20;99.90;;;;;;5009717;28;20030;-79
2021/05/01 09:23:53;;;;;;;5.25;2.95;;;10.20;99.90;;;;;;4989750;28;20119;-77
2021/05/01 09:26:40;;;;;;;6.40;2.85;;;10.00;99.90;;;;;;4995707;28;20017;-76
2021/05/01 09:29:06;;;;;;;2.75;1.92;;;10.20;99.90;;;;;;4996437;28;20485;-75
2021/05/01 09:31:44;;;;;;;3.00;2.20;;;10.00;99.90;;;;;;5012682;28;20105;-77
2021/05/01 09:34:10;;;;;;;5.30;2.72;;;10.20;99.90;;;;;;5006891;28;20038;-76
2021/05/01 09:36:36;;;;;;;3.13;2.40;;;10.90;99.90;;;;;;4994035;28;20212;-77
2021/05/01 09:39:02;;;;;;;3.30;1.77;;;11.60;99.90;;;;;;5005906;28;20030;-76
2021/05/01 09:41:33;;;;;;;4.10;2.70;;;12.00;99.90;;;;;;5007527;28;20025;-80
2021/05/01 09:44:01;;;;;;;3.60;2.33;;;12.60;99.90;;;;;;5008322;28;20109;-76
2021/05/01 09:46:27;;;;;;;2.83;2.17;;;12.90;99.90;;;;;;4989087;28;20041;-77
2021/05/01 09:49:24;;;;;;;4.90;2.50;;;13.40;99.90;;;;;;4998651;28;20026;-76
2021/05/01 09:51:54;;;;;;;4.28;2.28;;;13.90;99.90;;;;;;4998566;28;20263;-75
2021/05/01 09:54:28;;;;;;;9.77;3.33;;;14.20;99.90;;;;;;4998249;28;20081;-76
2021/05/01 09:56:56;;;;;;;3.85;1.80;;;14.50;99.90;;;;;;5016885;28;20142;-75
2021/05/01 09:59:36;;;;;;;4.68;2.42;;;14.20;99.90;;;;;;5015796;28;20018;-75
2021/05/01 10:02:01;;;;;;;4.13;1.92;;;14.00;99.90;;;;;;5008098;28;20092;-77
2021/05/01 10:04:28;;;;;;;2.13;1.53;;;14.30;99.90;;;;;;4995975;28;20356;-76
2021/05/01 10:06:57;;;;;;;8.88;2.20;;;14.40;99.90;;;;;;5011414;28;20302;-77
2021/05/01 10:09:27;;;;;;;3.53;2.13;;;14.50;99.90;;;;;;5010061;28;20038;-79
2021/05/01 10:12:03;;;;;;;5.68;2.65;;;14.50;99.90;;;;;;5016229;28;20026;-75
2021/05/01 10:14:52;;;;;;;4.57;2.30;;;14.50;99.90;;;;;;4978152;28;20054;-84
2021/05/01 10:17:21;;;;;;;2.25;1.50;;;14.60;99.90;;;;;;4982240;28;20029;-78
2021/05/01 10:20:04;;;;;;;2.38;2.00;;;14.70;99.90;;;;;;5005773;28;20025;-74
2021/05/01 10:22:43;;;;;;;2.13;1.65;;;14.80;99.90;;;;;;5009253;28;20038;-76
2021/05/01 10:25:11;;;;;;;3.35;1.90;;;14.90;99.90;;;;;;5006396;28;20051;-78
2021/05/01 10:27:43;;;;;;;;;;;14.90;99.90;;;;;;4989111;28;20039;-76
2021/05/01 10:30:29;;;;;;;2.65;1.80;;;15.10;99.90;;;;;;5006064;28;20001;-76
2021/05/01 10:33:15;;;;;;;4.13;1.83;;;15.30;99.90;;;;;;4993337;28;20083;-75
2021/05/01 10:36:08;;;;;;;3.53;2.33;;;15.10;99.90;;;;;;4984559;28;20041;-76
2021/05/01 10:38:34;;;;;;;2.17;1.80;;;14.70;99.90;;;;;;4994543;28;20030;-76
2021/05/01 10:41:03;;;;;;;3.97;2.08;;;14.10;99.90;;;;;;4991590;28;20022;-76
2021/05/01 10:43:35;;;;;;;6.25;2.15;;;13.70;99.90;;;;;;5011621;28;20029;-83
2021/05/01 10:46:09;;;;;;;4.75;1.70;;;13.80;99.90;;;;;;4998536;28;20029;-80
2021/05/01 10:48:47;;;;;;;3.58;1.70;;;13.80;99.90;;;;;;4995741;28;20076;-79
2021/05/01 10:51:15;;;;;;;4.47;1.52;;;13.70;99.90;;;;;;4996277;28;20316;-79
2021/05/01 10:53:41;;;;;;;4.57;2.22;;;13.80;99.90;;;;;;4991888;28;20116;-79
2021/05/01 10:56:09;;;;;;;4.70;2.03;;;13.90;99.90;;;;;;4991411;28;20393;-76
2021/05/01 10:58:42;;;;;;;4.60;1.98;;;14.20;99.90;;;;;;4992168;28;20036;-79
2021/05/01 11:01:29;;;;;;;3.42;1.90;;;14.60;99.90;;;;;;4993769;28;20030;-77
2021/05/01 11:04:01;;;;;;;3.08;1.98;;;14.50;99.90;;;;;;5012231;28;20405;-79
2021/05/01 11:06:29;;;;;;;2.03;1.77;;;13.90;99.90;;;;;;4997120;28;20432;-80
2021/05/01 11:09:08;;;;;;;1.90;1.20;;;13.50;99.90;;;;;;4996516;28;20044;-76
2021/05/01 11:11:42;;;;;;;5.00;1.42;;;13.20;99.90;;;;;;4997227;28;20030;-76
2021/05/01 11:14:23;;;;;;;3.20;1.92;;;13.50;99.90;;;;;;4996057;28;20366;-80
2021/05/01 11:17:12;;;;;;;4.75;1.70;;;13.90;99.90;;;;;;5014444;28;20026;-81
2021/05/01 11:19:46;;;;;;;3.17;1.17;;;14.40;99.90;;;;;;5010548;28;20080;-79
2021/05/01 11:22:21;;;;;;;2.60;1.20;;;14.80;99.90;;;;;;5014831;28;20033;-76
2021/05/01 11:24:47;;;;;;;2.25;1.23;;;15.20;99.90;;;;;;5015405;28;20030;-76
2021/05/01 11:27:13;;;;;;;4.57;2.27;;;15.30;99.90;;;;;;5014066;28;20033;-75
2021/05/01 11:29:40;;;;;;;3.05;1.35;;;14.50;99.90;;;;;;5013438;28;20576;-84
2021/05/01 11:32:07;;;;;;;3.55;1.60;;;14.00;99.90;;;;;;4996067;28;20026;-83
2021/05/01 11:34:35;;;;;;;2.00;1.45;;;14.10;99.90;;;;;;4991251;28;20041;-77
2021/05/01 11:37:07;;;;;;;3.80;1.80;;;13.50;99.90;;;;;;4998849;28;20060;-78
2021/05/01 11:39:38;;;;;;;2.33;1.85;;;13.40;99.90;;;;;;5005148;28;20022;-76
2021/05/01 11:42:04;;;;;;;2.53;1.70;;;13.60;99.90;;;;;;4999314;28;20439;-82
2021/05/01 11:44:30;;;;;;;3.65;1.58;;;12.80;99.90;;;;;;4981307;28;20437;-76
2021/05/01 11:47:09;;;;;;;2.95;1.40;;;12.40;99.90;;;;;;5004251;28;20352;-78
2021/05/01 11:49:35;;;;;;;2.08;1.65;;;12.30;99.90;;;;;;5005448;28;20029;-77
2021/05/01 11:52:15;;;;;;;2.47;1.43;;;12.40;99.90;;;;;;5006000;28;20049;-82
2021/05/01 11:55:00;;;;;;;2.50;2.25;;;12.70;99.90;;;;;;5010795;28;20041;-78
2021/05/01 11:57:36;;;;;;;4.18;1.75;;;13.10;99.90;;;;;;4994518;28;20015;-77
2021/05/01 12:00:03;;;;;;;1.77;1.60;;;13.10;99.90;;;;;;4995606;28;20328;-87
2021/05/01 12:02:43;;;;;;;4.78;1.75;;;12.80;99.90;;;;;;5003826;28;20030;-84
2021/05/01 12:05:17;;;;;;;2.33;1.20;;;12.80;99.90;;;;;;5013337;28;20363;-78
2021/05/01 12:08:17;;;;;;;1.40;1.00;;;12.90;99.90;;;;;;5004816;28;20080;-79
2021/05/01 12:10:45;;;;;;;4.05;1.10;;;13.10;99.90;;;;;;5008305;28;20033;-76
2021/05/01 12:13:34;;;;;;;6.20;1.63;;;13.50;99.90;;;;;;5009864;28;20060;-82
2021/05/01 12:16:01;;;;;;;4.30;1.23;;;13.90;99.90;;;;;;4995552;28;20313;-77
2021/05/01 12:18:46;;;;;;;4.75;1.10;;;14.30;99.90;;;;;;4996434;28;20021;-75
2021/05/01 12:21:20;;;;;;;2.15;1.17;;;14.70;99.90;;;;;;5014292;28;20026;-78
2021/05/01 12:23:58;;;;;;;1.20;0.88;;;15.10;99.90;;;;;;4996235;28;20026;-77
2021/05/01 12:26:33;;;;;;;2.92;1.08;;;15.20;99.90;;;;;;5013565;28;20026;-78
2021/05/01 12:29:20;;;;;;;2.92;1.17;;;14.50;99.90;;;;;;5014230;28;20036;-74
2021/05/01 12:31:47;;;;;;;;;;;13.20;99.90;;;;;;5014355;28;20437;-76
2021/05/01 12:34:13;;;;;;;1.27;1.05;;;12.50;99.90;;;;;;5014103;28;19935;-76
2021/05/01 12:36:43;;;;;;;3.67;2.20;;;12.40;99.90;;;;;;5011369;28;20026;-77
2021/05/01 12:39:10;;;;;;;2.33;1.40;;;12.80;99.90;;;;;;4995190;28;20375;-76
2021/05/01 12:41:42;;;;;;;6.10;1.42;;;13.00;99.90;;;;;;5013200;28;20058;-76
2021/05/01 12:44:28;;;;;;;2.58;1.27;;;13.20;99.90;;;;;;5012324;28;20097;-76
2021/05/01 12:46:56;;;;;;;1.70;1.15;;;13.20;99.90;;;;;;5011337;28;20088;-76
2021/05/01 12:49:24;;;;;;;5.80;1.38;;;13.00;99.90;;;;;;4996330;28;20674;-77
2021/05/01 12:52:21;;;;;;;3.67;1.55;;;13.00;99.90;;;;;;5009197;28;20045;-75
2021/05/01 12:54:56;;;;;;;4.05;1.77;;;12.70;99.90;;;;;;5008401;28;20068;-79
2021/05/01 12:57:33;;;;;;;1.85;1.30;;;12.70;99.90;;;;;;5012488;28;20144;-76
2021/05/01 13:00:24;;;;;;;3.45;1.40;;;12.50;99.90;;;;;;5009791;28;20025;-77
2021/05/01 13:03:17;;;;;;;2.17;1.65;;;11.80;99.90;;;;;;5011613;28;20057;-79